Time;durP1;ratioP1;P1;durP2;ratioP2;P2;SDS_P1;SDS_P2;PMS_P1;PMS_P2;Temp;Humidity;BMP_temperature;BMP_pressure;BME280_temperature;BME280_humidity;BME280_pressure;Samples;Min_cycle;Max_cycle;Signal;HPM_P1;HPM_P2
2023/12/11 00:02:25;;;;;;;2.80;2.13;;;;;;;7.51;64.96;98831.53;10416179;28;20227;-73
2023/12/11 00:07:40;;;;;;;2.43;2.23;;;;;;;7.41;64.86;98880.72;10380834;28;20328;-72
2023/12/11 00:12:55;;;;;;;2.10;2.00;;;;;;;7.98;64.18;98836.53;10390263;28;20244;-73
2023/12/11 00:18:10;;;;;;;2.50;2.30;;;;;;;7.46;65.25;98881.84;10400585;28;20240;-73
2023/12/11 00:23:18;;;;;;;2.57;2.23;;;;;;;6.94;67.74;98894.25;10379647;28;20267;-72
2023/12/11 00:28:26;;;;;;;5.80;2.47;;;;;;;8.18;64.05;98826.06;10382903;28;20232;-74
2023/12/11 00:33:36;;;;;;;3.87;2.37;;;;;;;7.25;66.40;98895.06;10396373;28;20279;-73
2023/12/11 00:38:44;;;;;;;2.50;2.30;;;;;;;7.05;67.88;98878.84;10380964;28;20240;-73
2023/12/11 00:43:59;;;;;;;3.53;2.10;;;;;;;7.42;66.20;98848.59;10393958;28;20294;-73
2023/12/11 00:49:08;;;;;;;4.00;2.10;;;;;;;7.64;65.25;98848.66;10378271;28;20232;-73
2023/12/11 00:54:16;;;;;;;2.10;2.00;;;;;;;6.98;66.85;98919.47;10395099;28;20331;-73
2023/12/11 00:59:24;;;;;;;2.83;2.63;;;;;;;7.12;66.31;98890.38;10376325;28;20223;-73
2023/12/11 01:04:39;;;;;;;2.50;2.30;;;;;;;6.98;66.75;98900.03;10391010;28;20377;-72
2023/12/11 01:09:55;;;;;;;3.37;2.37;;;;;;;7.98;64.54;98809.91;10374942;28;20816;-74
2023/12/11 01:15:04;;;;;;;2.40;2.20;;;;;;;7.34;64.39;98963.16;10388418;28;20224;-73
2023/12/11 01:20:12;;;;;;;3.03;2.30;;;;;;;7.89;63.96;98876.63;10381145;28;20258;-73
2023/12/11 01:25:20;;;;;;;2.53;2.43;;;;;;;7.46;65.11;98905.81;10377985;28;20665;-73
2023/12/11 01:30:28;;;;;;;3.43;2.20;;;;;;;7.20;66.72;98877.00;10395067;28;20249;-72
2023/12/11 01:35:43;;;;;;;2.00;1.90;;;;;;;7.65;65.51;98831.69;10388306;28;20336;-74
2023/12/11 01:40:51;;;;;;;2.20;2.10;;;;;;;6.29;69.66;98937.31;10391131;28;20328;-73
2023/12/11 01:46:13;;;;;;;2.00;1.90;;;;;;;7.02;68.50;98852.59;10390131;28;20228;-73
2023/12/11 01:51:22;;;;;;;2.10;2.00;;;;;;;6.51;69.39;98885.97;10367638;28;20319;-74
2023/12/11 01:56:30;;;;;;;2.40;2.30;;;;;;;6.45;70.43;98870.78;10386813;28;20244;-73
2023/12/11 02:01:40;;;;;;;3.57;2.20;;;;;;;7.16;68.15;98814.53;10389257;28;20232;-73
2023/12/11 02:06:55;;;;;;;2.40;2.10;;;;;;;8.00;66.97;98751.91;10392300;28;20322;-73
2023/12/11 02:12:05;;;;;;;2.30;2.20;;;;;;;7.68;67.30;98818.81;10371419;28;20236;-73
2023/12/11 02:17:13;;;;;;;1.73;1.73;;;;;;;8.26;63.96;98912.03;10389381;28;20737;-73
2023/12/11 02:22:21;;;;;;;2.00;1.90;;;;;;;8.54;64.00;98860.59;10386915;28;20286;-73
2023/12/11 02:27:30;;;;;;;2.40;2.20;;;;;;;8.84;64.47;98829.22;10388118;28;20237;-73
2023/12/11 02:32:38;;;;;;;2.10;2.00;;;;;;;7.79;66.49;98939.16;10387651;28;20681;-74
2023/12/11 02:37:46;;;;;;;1.90;1.80;;;;;;;7.24;68.79;98912.03;10389846;28;20232;-74
2023/12/11 02:42:54;;;;;;;2.00;1.90;;;;;;;7.38;68.15;98907.75;10386852;28;20796;-73
2023/12/11 02:48:03;;;;;;;2.87;2.60;;;;;;;8.04;66.58;98865.91;10390131;28;20315;-73
2023/12/11 02:53:11;;;;;;;2.07;1.87;;;;;;;7.53;67.22;98916.53;10386335;28;20249;-73
2023/12/11 02:58:19;;;;;;;1.87;1.83;;;;;;;7.69;68.21;98896.84;10385913;28;20266;-76
2023/12/11 03:03:27;;;;;;;2.07;1.97;;;;;;;7.96;66.81;98889.19;10392977;28;20243;-76
2023/12/11 03:08:42;;;;;;;1.90;1.80;;;;;;;7.99;66.66;98907.47;10345737;28;20244;-76
2023/12/11 03:13:50;;;;;;;2.10;2.00;;;;;;;7.95;67.14;98859.06;10384355;28;20315;-76
2023/12/11 03:18:58;;;;;;;2.10;2.00;;;;;;;8.07;66.92;98844.22;10394044;28;20590;-76
2023/12/11 03:24:06;;;;;;;2.10;2.00;;;;;;;8.41;65.27;98852.50;10394717;28;20614;-76
2023/12/11 03:29:15;;;;;;;1.80;1.70;;;;;;;7.38;69.65;98857.19;10386728;28;20900;-75
2023/12/11 03:34:23;;;;;;;2.10;2.00;;;;;;;8.05;66.64;98832.09;10371429;28;20275;-76
2023/12/11 03:39:32;;;;;;;1.90;1.80;;;;;;;7.35;69.07;98861.84;10387273;28;20244;-76
2023/12/11 03:44:43;;;;;;;2.10;2.00;;;;;;;8.13;66.14;98796.50;10375571;28;20374;-75
2023/12/11 03:49:51;;;;;;;2.20;2.10;;;;;;;7.79;66.13;98902.69;10392441;28;20605;-75
2023/12/11 03:54:59;;;;;;;2.23;2.10;;;;;;;8.35;65.82;98816.75;10400193;28;20225;-75
2023/12/11 04:00:08;;;;;;;1.83;1.73;;;;;;;8.09;66.30;98849.34;10391039;28;20247;-76
2023/12/11 04:05:23;;;;;;;2.00;1.90;;;;;;;8.18;65.71;98885.50;10395708;28;20236;-75
2023/12/11 04:10:38;;;;;;;3.13;1.90;;;;;;;8.16;65.74;98868.06;10428305;28;20649;-76
2023/12/11 04:15:46;;;;;;;3.60;1.90;;;;;;;7.97;66.18;98885.53;10426769;28;20243;-76
2023/12/11 04:20:54;;;;;;;2.00;1.90;;;;;;;8.26;64.33;98908.56;10435634;28;20263;-76
2023/12/11 04:26:03;;;;;;;2.40;2.20;;;;;;;8.04;65.12;98905.88;10426302;28;20607;-76
2023/12/11 04:31:10;;;;;;;1.90;1.80;;;;;;;8.43;63.95;98866.47;10433650;28;20232;-75
2023/12/11 04:36:18;;;;;;;1.90;1.80;;;;;;;9.16;62.10;98802.94;10431677;28;20326;-74
2023/12/11 04:41:27;;;;;;;2.00;1.90;;;;;;;8.07;63.86;98937.47;10416006;28;20282;-75
2023/12/11 04:46:34;;;;;;;2.53;1.93;;;;;;;8.37;63.38;98899.22;10425713;28;20304;-74
2023/12/11 04:51:42;;;;;;;1.93;1.70;;;;;;;8.32;63.07;98906.97;10416667;28;20278;-75
2023/12/11 04:56:50;;;;;;;2.03;1.87;;;;;;;8.90;62.85;98816.94;10429309;28;20235;-75
2023/12/11 05:01:58;;;;;;;2.47;1.90;;;;;;;9.08;61.94;98836.94;10433795;28;20231;-74
2023/12/11 05:07:13;;;;;;;3.53;1.90;;;;;;;8.74;61.97;98865.25;10386299;28;20752;-74
2023/12/11 05:12:21;;;;;;;1.90;1.80;;;;;;;8.60;63.10;98817.16;10379826;28;20234;-74
2023/12/11 05:17:29;;;;;;;1.80;1.70;;;;;;;8.40;63.58;98838.31;10386071;28;20736;-74
2023/12/11 05:22:37;;;;;;;1.90;1.80;;;;;;;8.89;62.54;98767.28;10374888;28;20236;-74
2023/12/11 05:27:45;;;;;;;1.90;1.80;;;;;;;8.47;62.68;98807.22;10383970;28;20240;-75
2023/12/11 05:32:53;;;;;;;2.90;2.27;;;;;;;8.07;63.90;98844.22;10395357;28;20616;-74
2023/12/11 05:38:08;;;;;;;3.33;2.10;;;;;;;8.04;63.22;98908.53;10385848;28;20252;-74
2023/12/11 05:43:20;;;;;;;2.23;2.03;;;;;;;8.31;62.69;98860.81;10398327;28;20234;-74
2023/12/11 05:48:28;;;;;;;1.90;1.80;;;;;;;8.45;62.36;98851.09;10396209;28;20245;-73
2023/12/11 05:53:37;;;;;;;1.80;1.70;;;;;;;8.45;61.73;98867.94;10398571;28;20629;-74
2023/12/11 05:58:44;;;;;;;1.70;1.60;;;;;;;8.26;62.25;98882.72;10397916;28;20247;-74
2023/12/11 06:04:00;;;;;;;1.97;1.87;;;;;;;7.78;62.48;98965.00;10375922;28;20241;-74
2023/12/11 06:09:15;;;;;;;2.03;1.93;;;;;;;8.18;62.66;98872.19;10406705;28;20702;-72
2023/12/11 06:14:24;;;;;;;2.80;2.37;;;;;;;8.15;62.96;98847.75;10378787;28;20256;-73
2023/12/11 06:19:32;;;;;;;2.50;2.30;;;;;;;8.22;61.90;98870.00;10385573;28;20228;-74
2023/12/11 06:24:40;;;;;;;2.00;1.90;;;;;;;8.80;60.70;98774.59;10394656;28;20247;-74
2023/12/11 06:29:49;;;;;;;2.03;1.90;;;;;;;8.56;61.45;98829.22;10397326;28;20216;-74
2023/12/11 06:35:04;;;;;;;2.80;2.50;;;;;;;9.04;60.21;98804.50;10397828;28;20232;-74
2023/12/11 06:40:12;;;;;;;2.93;2.47;;;;;;;8.56;60.67;98871.91;10395883;28;20925;-73
2023/12/11 06:45:20;;;;;;;3.57;2.37;;;;;;;9.01;60.14;98821.75;10387981;28;20233;-74
2023/12/11 06:50:30;;;;;;;2.53;2.30;;;;;;;8.60;60.68;98838.47;10369900;28;20228;-74
2023/12/11 06:55:38;;;;;;;2.80;1.93;;;;;;;9.08;59.57;98797.75;10396130;28;20229;-75
2023/12/11 07:00:46;;;;;;;6.83;2.43;;;;;;;8.22;61.43;98902.78;10375549;28;20227;-75
2023/12/11 07:06:00;;;;;;;2.23;2.03;;;;;;;8.07;61.09;98924.16;10396169;28;20260;-74
2023/12/11 07:11:15;;;;;;;2.03;1.83;;;;;;;8.48;60.48;98893.38;10382949;28;20229;-73
2023/12/11 07:16:24;;;;;;;1.90;1.80;;;;;;;9.03;59.20;98814.34;10396361;28;20471;-74
2023/12/11 07:21:32;;;;;;;2.83;2.47;;;;;;;8.60;60.16;98861.66;10388998;28;20251;-74
2023/12/11 07:26:40;;;;;;;2.37;2.17;;;;;;;8.06;60.66;98948.31;10397345;28;20224;-74
2023/12/11 07:31:48;;;;;;;2.70;2.40;;;;;;;9.40;58.45;98782.06;10391252;28;20229;-74
2023/12/11 07:36:56;;;;;;;3.07;2.60;;;;;;;8.72;59.86;98865.44;10396145;28;20659;-74
2023/12/11 07:42:04;;;;;;;2.60;2.40;;;;;;;8.46;59.68;98936.22;10380722;28;20228;-72
2023/12/11 07:47:13;;;;;;;2.67;2.20;;;;;;;8.04;61.15;98969.81;10389210;28;20775;-73
2023/12/11 07:52:21;;;;;;;2.50;2.20;;;;;;;8.15;61.37;98893.91;10400347;28;20248;-73
2023/12/11 07:57:29;;;;;;;4.50;2.10;;;;;;;8.58;60.00;98871.72;10379910;28;20647;-73
2023/12/11 08:02:37;;;;;;;3.30;2.10;;;;;;;8.31;60.59;98892.81;10402111;28;20279;-75
2023/12/11 08:07:51;;;;;;;3.30;2.13;;;;;;;8.59;60.43;98844.84;10413278;28;20695;-74
2023/12/11 08:13:00;;;;;;;2.87;2.10;;;;;;;8.84;59.78;98836.38;10423508;28;20264;-74
2023/12/11 08:18:08;;;;;;;4.13;2.00;;;;;;;9.64;58.26;98756.63;10435408;28;20259;-73
2023/12/11 08:23:16;;;;;;;2.13;1.93;;;;;;;8.47;59.81;98905.03;10423743;28;20243;-73
2023/12/11 08:28:24;;;;;;;5.07;2.00;;;;;;;8.64;59.31;98893.09;10437732;28;20282;-74
2023/12/11 08:33:33;;;;;;;2.30;2.10;;;;;;;9.68;57.43;98853.22;10429933;28;20531;-74
2023/12/11 08:38:41;;;;;;;2.00;1.90;;;;;;;9.76;57.43;98877.06;10422550;28;20516;-73
2023/12/11 08:43:49;;;;;;;2.30;2.10;;;;;;;9.99;56.75;98868.75;10439437;28;20246;-74
2023/12/11 08:48:58;;;;;;;2.57;2.20;;;;;;;9.34;57.72;98932.38;10431192;28;20327;-74
2023/12/11 08:54:07;;;;;;;6.00;2.30;;;;;;;8.47;59.25;98983.22;10425492;28;20515;-74
2023/12/11 08:59:16;;;;;;;3.47;1.87;;;;;;;8.58;59.22;98959.72;10440185;28;20228;-75
2023/12/11 09:04:30;;;;;;;4.20;2.20;;;;;;;8.82;59.39;98905.13;10419857;28;20655;-73
2023/12/11 09:09:45;;;;;;;2.40;2.20;;;;;;;8.60;59.26;98929.16;10440324;28;20788;-74
2023/12/11 09:14:54;;;;;;;3.13;2.43;;;;;;;9.37;58.51;98841.19;10424079;28;20232;-74
2023/12/11 09:20:04;;;;;;;2.63;1.90;;;;;;;8.46;59.11;99004.72;10440679;28;20210;-74
2023/12/11 09:25:12;;;;;;;2.90;2.10;;;;;;;9.40;57.69;98873.66;10444566;28;20243;-74
2023/12/11 09:30:21;;;;;;;5.50;2.40;;;;;;;9.16;58.25;98911.53;10422991;28;20237;-74
2023/12/11 09:35:29;;;;;;;4.40;2.47;;;;;;;8.60;59.99;98931.81;10421381;28;20469;-74
2023/12/11 09:40:37;;;;;;;3.40;2.10;;;;;;;8.54;60.08;98916.59;10433180;28;20224;-74
2023/12/11 09:45:47;;;;;;;3.43;2.40;;;;;;;9.36;59.13;98851.03;10427760;28;20250;-74
2023/12/11 09:50:56;;;;;;;3.53;2.40;;;;;;;9.13;59.99;98878.06;10439696;28;20271;-74
2023/12/11 09:56:06;;;;;;;4.37;2.23;;;;;;;9.20;59.23;98952.84;10435365;28;20612;-74
2023/12/11 10:01:15;;;;;;;4.70;2.77;;;;;;;9.34;59.55;98911.00;10430092;28;20285;-74
2023/12/11 10:06:29;;;;;;;4.80;2.20;;;;;;;10.04;58.36;98844.06;10446972;28;20626;-75
2023/12/11 10:11:44;;;;;;;4.77;3.00;;;;;;;9.54;58.86;98941.31;10444621;28;20744;-75
2023/12/11 10:16:53;;;;;;;3.27;2.77;;;;;;;9.53;59.42;98901.44;10439199;28;20242;-76
2023/12/11 10:22:01;;;;;;;5.17;2.60;;;;;;;9.74;59.01;98881.81;10426377;28;20235;-74
2023/12/11 10:27:09;;;;;;;4.37;2.87;;;;;;;9.88;58.85;98890.72;10439678;28;20250;-73
2023/12/11 10:32:18;;;;;;;2.70;2.23;;;;;;;10.32;58.42;98847.38;10426707;28;20263;-72
2023/12/11 10:37:34;;;;;;;3.50;2.50;;;;;;;10.13;58.10;98907.81;10434327;28;20579;-75
2023/12/11 10:42:42;;;;;;;8.53;3.00;;;;;;;9.51;59.05;98983.63;10437194;28;20300;-74
2023/12/11 10:47:50;;;;;;;5.10;2.73;;;;;;;9.56;58.70;98994.53;10430064;28;20739;-75
2023/12/11 10:53:03;;;;;;;8.53;2.80;;;;;;;10.53;57.34;98869.59;10434256;28;20322;-76
2023/12/11 10:58:12;;;;;;;8.13;2.83;;;;;;;9.82;58.29;98943.09;10425151;28;20274;-72
2023/12/11 11:06:28;;;;;;;5.53;2.90;;;;;;;7.79;63.85;98924.00;10093537;27;8328065;-74
2023/12/11 11:11:44;;;;;;;4.80;2.40;;;;;;;7.82;63.74;98933.47;10336201;28;20882;-75
2023/12/11 11:17:00;;;;;;;4.60;2.53;;;;;;;8.42;62.33;98918.97;10318868;28;20293;-75
2023/12/11 11:22:08;;;;;;;9.60;2.63;;;;;;;9.02;61.66;98857.25;10314249;28;20284;-75
2023/12/11 11:27:43;;;;;;;7.20;3.27;;;;;;;8.17;61.36;98997.63;10298356;28;20434;-75
2023/12/11 11:32:56;;;;;;;6.40;3.40;;;;;;;7.86;61.38;99031.47;10311510;28;20241;-76
2023/12/11 11:38:04;;;;;;;6.73;3.67;;;;;;;8.39;60.68;98972.66;10318542;28;20233;-75
2023/12/11 11:43:18;;;;;;;8.97;2.80;;;;;;;7.83;59.92;99060.31;10347860;28;20233;-76
2023/12/11 11:48:40;;;;;;;11.50;3.20;;;;;;;8.86;58.16;98949.06;10311645;28;20241;-77
2023/12/11 11:53:55;;;;;;;8.53;3.07;;;;;;;8.95;57.43;98960.47;10331893;28;20229;-75
2023/12/11 11:59:05;;;;;;;7.37;2.73;;;;;;;8.16;58.04;99004.00;10340597;28;20253;-76
2023/12/11 12:04:33;;;;;;;14.60;3.60;;;;;;;7.96;58.12;98972.59;10361749;28;20670;-76
2023/12/11 12:09:41;;;;;;;6.87;2.60;;;;;;;7.49;58.89;99029.72;10342625;28;20249;-77
2023/12/11 12:15:04;;;;;;;9.27;3.50;;;;;;;7.92;57.28;98981.97;10301603;28;20236;-74
2023/12/11 12:20:14;;;;;;;6.07;2.80;;;;;;;7.24;57.97;99085.88;10314319;28;20238;-76
2023/12/11 12:25:26;;;;;;;7.53;3.20;;;;;;;7.77;56.54;99031.75;10311284;28;20240;-76
2023/12/11 12:30:35;;;;;;;9.47;3.07;;;;;;;7.92;55.46;99036.09;10312718;28;20277;-75
2023/12/11 12:35:45;;;;;;;9.73;3.40;;;;;;;8.10;54.27;99054.34;10310347;28;20241;-75
2023/12/11 12:40:54;;;;;;;9.10;2.93;;;;;;;8.37;54.40;98989.84;10312498;28;20321;-76
2023/12/11 12:46:03;;;;;;;5.27;2.60;;;;;;;7.86;53.82;99051.97;10306515;28;20318;-75
2023/12/11 12:51:11;;;;;;;6.50;3.47;;;;;;;8.06;53.77;99042.41;10308396;28;20607;-76
2023/12/11 12:56:20;;;;;;;7.47;3.13;;;;;;;8.16;54.12;99038.63;10309205;28;20268;-75
2023/12/11 13:01:36;;;;;;;6.80;3.47;;;;;;;9.18;54.08;98958.38;10300832;28;20234;-76
2023/12/11 13:06:51;;;;;;;10.07;3.73;;;;;;;8.79;54.99;99069.06;10255912;28;20230;-75
2023/12/11 13:12:00;;;;;;;6.47;3.57;;;;;;;9.07;55.08;99070.19;10270283;28;20227;-75
2023/12/11 13:17:08;;;;;;;11.83;4.53;;;;;;;9.29;53.98;99057.63;10254200;28;20679;-76
2023/12/11 13:22:16;;;;;;;6.80;3.13;;;;;;;9.15;53.51;99046.03;10274951;28;20235;-76
2023/12/11 13:27:31;;;;;;;6.63;2.77;;;;;;;8.84;53.56;99058.66;10270872;28;20732;-75
2023/12/11 13:32:39;;;;;;;7.93;3.10;;;;;;;8.15;54.83;99146.22;10266023;28;20910;-75
2023/12/11 13:37:47;;;;;;;9.40;3.80;;;;;;;9.03;53.98;99016.34;10266244;28;20273;-75
2023/12/11 13:42:55;;;;;;;6.53;3.53;;;;;;;8.34;54.08;99148.34;10264106;28;20285;-75
2023/12/11 13:48:03;;;;;;;9.00;3.30;;;;;;;8.48;54.80;99088.81;10251367;28;20235;-75
2023/12/11 13:53:12;;;;;;;7.80;2.83;;;;;;;8.16;55.07;99129.25;10253936;28;20241;-76
2023/12/11 13:58:20;;;;;;;6.70;3.27;;;;;;;7.94;55.04;99154.97;10273343;28;20341;-76
2023/12/11 14:03:35;;;;;;;7.10;2.70;;;;;;;8.11;55.55;99119.94;10269919;28;20280;-75
2023/12/11 14:08:51;;;;;;;10.33;3.30;;;;;;;8.37;54.02;99120.47;10308191;28;20294;-75
2023/12/11 14:13:59;;;;;;;6.20;2.93;;;;;;;8.61;54.30;99098.84;10310048;28;20242;-76
2023/12/11 14:19:07;;;;;;;6.73;2.97;;;;;;;9.10;53.27;99069.78;10306777;28;20569;-75
2023/12/11 14:24:16;;;;;;;13.10;3.50;;;;;;;8.37;53.76;99165.81;10312439;28;20362;-77
2023/12/11 14:29:23;;;;;;;13.97;3.60;;;;;;;8.45;53.86;99142.56;10303723;28;20255;-76
2023/12/11 14:34:31;;;;;;;9.50;4.10;;;;;;;8.80;53.36;99120.56;10306812;28;20273;-75
2023/12/11 14:39:40;;;;;;;10.63;3.60;;;;;;;8.57;53.79;99156.25;10304531;28;20237;-75
2023/12/11 14:44:49;;;;;;;9.60;3.87;;;;;;;9.03;52.78;99144.47;10308189;28;20241;-75
2023/12/11 14:49:57;;;;;;;8.23;3.80;;;;;;;8.86;54.01;99146.50;10294102;28;20587;-80
2023/12/11 14:55:07;;;;;;;6.87;3.30;;;;;;;8.21;54.94;99222.81;10310986;28;20660;-79
2023/12/11 15:05:25;;;;;;;9.57;3.77;;;;;;;6.72;58.44;99103.34;10207776;27;8268202;-79
2023/12/11 15:10:35;;;;;;;8.57;3.70;;;;;;;7.18;57.61;99107.84;10341504;28;20666;-79
2023/12/11 15:15:44;;;;;;;9.67;3.70;;;;;;;7.27;58.25;99058.03;10387014;28;20233;-79
2023/12/11 15:20:54;;;;;;;11.10;3.57;;;;;;;7.08;57.89;99128.56;10343472;28;20249;-79
2023/12/11 15:26:06;;;;;;;12.77;4.13;;;;;;;7.44;57.46;99072.88;10353198;28;20243;-79
2023/12/11 15:31:23;;;;;;;10.13;3.47;;;;;;;7.15;57.83;99140.97;10389040;28;20398;-77
2023/12/11 15:36:31;;;;;;;8.37;3.63;;;;;;;7.10;57.94;99135.34;10360091;28;20730;-78
2023/12/11 15:41:39;;;;;;;7.27;3.20;;;;;;;7.38;56.79;99128.66;10385747;28;20283;-81
2023/12/11 15:46:47;;;;;;;11.07;3.93;;;;;;;7.16;57.13;99141.81;10388070;28;20257;-77
2023/12/11 15:51:55;;;;;;;7.80;3.60;;;;;;;7.24;56.67;99156.88;10380234;28;20229;-73
2023/12/11 15:57:03;;;;;;;10.63;3.83;;;;;;;7.29;56.79;99163.34;10377975;28;20241;-73
2023/12/11 16:02:11;;;;;;;9.87;3.80;;;;;;;7.28;57.36;99159.00;10372776;28;20708;-73
2023/12/11 16:07:26;;;;;;;9.60;4.07;;;;;;;7.19;57.30;99157.44;10371485;28;20480;-72
2023/12/11 16:12:34;;;;;;;10.90;3.43;;;;;;;7.93;56.25;99084.84;10374795;28;20263;-73
2023/12/11 16:17:51;;;;;;;10.10;4.33;;;;;;;7.24;56.98;99199.44;10347140;28;20321;-76
2023/12/11 16:22:59;;;;;;;10.50;4.10;;;;;;;7.69;56.54;99145.34;10338986;28;20238;-76
2023/12/11 16:28:07;;;;;;;8.27;4.23;;;;;;;7.81;55.74;99171.53;10346082;28;20709;-73
2023/12/11 16:33:16;;;;;;;6.50;3.97;;;;;;;7.41;56.93;99193.03;10333814;28;20233;-76
2023/12/11 16:38:24;;;;;;;9.00;3.80;;;;;;;7.80;56.05;99156.59;10346050;28;20241;-72
2023/12/11 16:43:33;;;;;;;14.27;4.00;;;;;;;7.81;56.78;99119.09;10343737;28;20229;-74
2023/12/11 16:48:42;;;;;;;11.97;3.37;;;;;;;8.08;55.92;99115.00;10362496;28;20229;-84
2023/12/11 16:53:51;;;;;;;7.10;3.40;;;;;;;7.59;56.28;99205.19;10360363;28;20229;-79
2023/12/11 16:59:02;;;;;;;11.17;3.70;;;;;;;7.57;55.24;99244.47;10343437;28;20233;-80
2023/12/11 17:04:17;;;;;;;10.00;3.40;;;;;;;8.14;54.87;99197.91;10347023;28;20241;-80
2023/12/11 17:09:26;;;;;;;8.87;3.80;;;;;;;7.82;55.94;99195.34;10366540;28;20232;-81
2023/12/11 17:14:35;;;;;;;7.77;3.80;;;;;;;7.23;56.97;99264.34;10358042;28;20272;-79
2023/12/11 17:19:43;;;;;;;9.30;3.33;;;;;;;7.94;56.28;99117.66;10374668;28;20244;-79
2023/12/11 17:24:52;;;;;;;9.53;3.73;;;;;;;7.53;56.04;99206.75;10347804;28;20253;-79
2023/12/11 17:30:00;;;;;;;8.67;3.57;;;;;;;7.44;56.04;99231.75;10355754;28;20229;-74
2023/12/11 17:35:08;;;;;;;8.70;4.07;;;;;;;7.56;55.86;99238.34;10349175;28;20662;-74
2023/12/11 17:40:17;;;;;;;9.63;3.97;;;;;;;8.01;55.75;99162.03;10337599;28;20728;-75
2023/12/11 17:45:26;;;;;;;13.97;3.80;;;;;;;7.69;55.94;99213.75;10344151;28;20237;-74
2023/12/11 17:50:35;;;;;;;8.90;3.20;;;;;;;7.10;56.90;99300.31;10347882;28;21276;-75
2023/12/11 17:55:43;;;;;;;9.53;3.97;;;;;;;7.24;57.08;99288.13;10329517;28;20325;-73
2023/12/11 18:00:58;;;;;;;8.00;3.80;;;;;;;7.54;56.83;99254.50;10351420;28;20241;-76
2023/12/11 18:06:16;;;;;;;7.47;3.70;;;;;;;7.54;56.95;99235.84;10344000;28;20233;-75
2023/12/11 18:11:24;;;;;;;12.57;4.10;;;;;;;7.79;57.10;99200.19;10338730;28;20228;-75
2023/12/11 18:16:33;;;;;;;9.57;3.23;;;;;;;6.75;59.02;99347.66;10338048;28;20304;-75
2023/12/11 18:21:41;;;;;;;10.73;3.73;;;;;;;7.56;57.86;99262.31;10353963;28;20229;-74
2023/12/11 18:26:49;;;;;;;9.60;3.50;;;;;;;8.12;56.75;99214.06;10344755;28;20249;-74
2023/12/11 18:31:57;;;;;;;10.33;3.33;;;;;;;8.27;56.48;99211.41;10352450;28;20228;-75
2023/12/11 18:37:05;;;;;;;10.73;3.13;;;;;;;7.73;57.51;99289.66;10347486;28;20260;-74
2023/12/11 18:42:13;;;;;;;13.60;4.23;;;;;;;7.54;58.07;99275.78;10344240;28;20228;-76
2023/12/11 18:47:21;;;;;;;11.10;4.60;;;;;;;7.55;57.62;99296.06;10343621;28;20518;-73
2023/12/11 18:52:30;;;;;;;7.93;3.67;;;;;;;7.95;56.91;99231.19;10364925;28;20232;-73
2023/12/11 18:57:38;;;;;;;7.80;4.20;;;;;;;8.41;56.08;99205.25;10331765;28;20233;-75
2023/12/11 19:02:53;;;;;;;10.20;4.57;;;;;;;8.70;55.68;99203.56;10350787;28;20264;-73
2023/12/11 19:08:08;;;;;;;9.10;4.10;;;;;;;7.36;57.63;99393.19;10350978;28;20232;-73
2023/12/11 19:13:16;;;;;;;10.30;4.40;;;;;;;8.06;56.90;99279.56;10336381;28;20233;-74
2023/12/11 19:18:25;;;;;;;9.67;4.07;;;;;;;7.92;56.96;99323.00;10348509;28;20240;-73
2023/12/11 19:23:35;;;;;;;9.13;3.67;;;;;;;7.56;57.58;99387.44;10339752;28;20233;-74
2023/12/11 19:28:44;;;;;;;11.20;4.70;;;;;;;8.28;55.85;99333.00;10352274;28;20233;-74
2023/12/11 19:33:59;;;;;;;12.00;4.53;;;;;;;8.25;56.02;99334.22;10323511;28;20264;-74
2023/12/11 19:39:09;;;;;;;8.77;3.93;;;;;;;8.00;56.69;99373.56;10345986;28;20291;-74
2023/12/11 19:44:18;;;;;;;12.17;4.70;;;;;;;7.73;57.11;99378.34;10343379;28;20709;-74
2023/12/11 19:49:26;;;;;;;12.00;5.00;;;;;;;7.49;57.74;99410.44;10349180;28;20226;-73
2023/12/11 19:54:38;;;;;;;12.47;5.07;;;;;;;8.75;55.56;99296.38;10351382;28;20324;-74
2023/12/11 19:59:46;;;;;;;11.97;5.83;;;;;;;8.25;56.40;99352.03;10358205;28;20243;-73
2023/12/11 20:05:01;;;;;;;10.23;4.20;;;;;;;8.07;56.77;99357.69;10350104;28;20324;-72
2023/12/11 20:10:10;;;;;;;6.37;3.40;;;;;;;8.87;55.47;99299.44;10356880;28;20661;-72
2023/12/11 20:15:18;;;;;;;7.63;4.33;;;;;;;8.80;55.62;99313.47;10345049;28;20242;-73
2023/12/11 20:20:26;;;;;;;15.57;5.93;;;;;;;8.37;57.11;99307.94;10362406;28;20307;-73
2023/12/11 20:25:35;;;;;;;10.73;6.43;;;;;;;8.32;57.49;99322.81;10341689;28;20241;-73
2023/12/11 20:30:42;;;;;;;12.97;5.97;;;;;;;7.79;57.73;99413.28;10351751;28;20612;-73
2023/12/11 20:35:50;;;;;;;10.97;5.13;;;;;;;8.01;57.97;99340.56;10333697;28;20260;-72
2023/12/11 20:40:58;;;;;;;12.37;4.93;;;;;;;8.10;57.45;99368.81;10354398;28;20750;-73
2023/12/11 20:46:07;;;;;;;9.57;3.77;;;;;;;8.44;57.44;99295.53;10350701;28;20468;-71
2023/12/11 20:51:19;;;;;;;9.80;4.50;;;;;;;7.88;58.00;99391.78;10354625;28;20296;-73
2023/12/11 20:56:34;;;;;;;13.67;4.57;;;;;;;9.01;56.48;99237.22;10350865;28;20272;-74
2023/12/11 21:01:49;;;;;;;8.80;3.27;;;;;;;8.33;56.83;99375.94;10354174;28;20312;-74
2023/12/11 21:07:04;;;;;;;10.60;3.60;;;;;;;8.15;57.61;99343.44;10353696;28;20232;-76
2023/12/11 21:12:14;;;;;;;8.70;4.10;;;;;;;7.72;58.20;99381.19;10333863;28;20217;-73
2023/12/11 21:17:21;;;;;;;6.37;3.97;;;;;;;8.87;56.13;99280.78;10352776;28;20366;-74
2023/12/11 21:22:30;;;;;;;10.60;3.80;;;;;;;7.96;58.09;99320.78;10354596;28;20241;-72
2023/12/11 21:27:41;;;;;;;15.00;4.20;;;;;;;7.64;57.59;99398.03;10338346;28;20326;-73
2023/12/11 21:32:49;;;;;;;10.83;4.07;;;;;;;7.73;57.82;99358.91;10353137;28;20601;-73
2023/12/11 21:37:57;;;;;;;8.30;3.60;;;;;;;7.88;57.84;99324.34;10340151;28;20320;-74
2023/12/11 21:43:06;;;;;;;10.43;3.47;;;;;;;8.26;57.14;99311.88;10352014;28;20229;-74
2023/12/11 21:48:14;;;;;;;7.70;3.93;;;;;;;8.34;57.27;99270.97;10355254;28;20241;-74
2023/12/11 21:53:23;;;;;;;13.43;4.13;;;;;;;8.60;56.13;99294.53;10346518;28;20233;-74
2023/12/11 21:58:31;;;;;;;11.13;4.50;;;;;;;7.91;56.39;99433.22;10347859;28;20324;-73
2023/12/11 22:03:46;;;;;;;15.00;5.20;;;;;;;8.94;55.31;99284.34;10346060;28;20705;-73
2023/12/11 22:09:01;;;;;;;10.60;5.23;;;;;;;7.86;56.85;99422.25;10352693;28;20234;-72
2023/12/11 22:14:10;;;;;;;10.60;4.03;;;;;;;9.12;54.58;99284.78;10349341;28;20233;-72
2023/12/11 22:19:18;;;;;;;7.27;3.80;;;;;;;7.99;56.61;99395.88;10348007;28;20320;-72
2023/12/11 22:24:28;;;;;;;8.37;4.27;;;;;;;8.44;55.86;99314.22;10334613;28;20642;-73
2023/12/11 22:29:37;;;;;;;10.70;4.63;;;;;;;8.58;54.86;99400.56;10353336;28;20732;-74
2023/12/11 22:34:48;;;;;;;9.77;4.90;;;;;;;8.98;54.14;99355.03;10344837;28;20236;-71
2023/12/11 22:39:57;;;;;;;9.33;4.53;;;;;;;9.44;53.35;99313.91;10351203;28;20209;-73
2023/12/11 22:45:05;;;;;;;8.70;4.00;;;;;;;9.87;53.06;99300.59;10348885;28;20237;-73
2023/12/11 22:50:14;;;;;;;9.27;4.23;;;;;;;8.04;55.34;99497.44;10348808;28;20300;-73
2023/12/11 22:55:22;;;;;;;9.40;5.30;;;;;;;7.62;57.25;99385.91;10345574;28;20247;-74
2023/12/11 23:00:32;;;;;;;10.57;6.07;;;;;;;7.77;57.65;99340.72;10353889;28;20284;-73
2023/12/11 23:05:46;;;;;;;10.93;5.43;;;;;;;8.06;57.15;99302.72;10329576;28;20225;-72
2023/12/11 23:10:55;;;;;;;10.70;5.10;;;;;;;7.12;58.90;99385.28;10345274;28;20267;-74
2023/12/11 23:16:03;;;;;;;10.67;4.83;;;;;;;6.94;59.09;99402.31;10344688;28;20237;-73
2023/12/11 23:21:18;;;;;;;8.87;4.00;;;;;;;6.85;59.07;99397.16;10327226;28;20241;-72
2023/12/11 23:26:32;;;;;;;7.60;3.37;;;;;;;6.83;59.68;99341.47;10347272;28;20261;-73
2023/12/11 23:31:41;;;;;;;7.47;3.37;;;;;;;7.03;59.64;99319.81;10332918;28;20267;-74
2023/12/11 23:36:49;;;;;;;10.80;3.93;;;;;;;6.51;60.29;99372.41;10344262;28;20248;-73
2023/12/11 23:41:57;;;;;;;14.50;4.17;;;;;;;6.55;60.53;99330.38;10351737;28;20311;-72
2023/12/11 23:47:05;;;;;;;8.93;3.40;;;;;;;6.37;60.73;99354.50;10351310;28;20329;-74
2023/12/11 23:52:13;;;;;;;12.80;3.00;;;;;;;6.93;59.93;99302.22;10353475;28;20742;-74
2023/12/11 23:57:21;;;;;;;10.73;3.87;;;;;;;7.26;58.25;99349.16;10332990;28;20242;-74
